createdAt,value
2023-05-06T00:02:22.360Z,97066.94
2023-05-06T00:05:09.489Z,97073.19
2023-05-06T00:07:56.511Z,97072.88
2023-05-06T00:10:43.267Z,97074.19
2023-05-06T00:13:30.226Z,97067.41
2023-05-06T00:16:17.113Z,97062.25
2023-05-06T00:19:04.402Z,97049.78
2023-05-06T00:21:51.279Z,97052.19
2023-05-06T00:24:38.074Z,97048.94
2023-05-06T00:27:24.863Z,97046.75
2023-05-06T00:30:11.892Z,97045.34
2023-05-06T00:32:58.665Z,97054.78
2023-05-06T00:35:45.446Z,97046.94
2023-05-06T00:38:32.214Z,97053.41
2023-05-06T00:41:18.992Z,97045.53
2023-05-06T00:44:05.938Z,97053.91
2023-05-06T00:46:52.876Z,97037.38
2023-05-06T00:49:39.676Z,97034.94
2023-05-06T00:52:26.458Z,97047.06
2023-05-06T00:55:13.218Z,97043.78
2023-05-06T00:58:00.029Z,97047.00
2023-05-06T01:00:46.989Z,97038.31
2023-05-06T01:03:33.936Z,97045.84
2023-05-06T01:06:24.434Z,97041.75
2023-05-06T01:09:20.529Z,97045.78
2023-05-06T01:12:08.411Z,97037.94
2023-05-06T01:15:00.286Z,97038.19
2023-05-06T01:17:47.326Z,97040.56
2023-05-06T01:20:34.100Z,97037.53
2023-05-06T01:23:20.899Z,97040.50
2023-05-06T01:26:08.061Z,97031.81
2023-05-06T01:28:54.997Z,97035.88
2023-05-06T01:31:43.491Z,97036.09
2023-05-06T01:34:40.969Z,97041.19
2023-05-06T01:37:40.038Z,97039.56
2023-05-06T01:40:27.759Z,97039.78
2023-05-06T01:43:14.490Z,97040.31
2023-05-06T01:46:01.345Z,97040.53
2023-05-06T01:48:49.883Z,97034.59
2023-05-06T01:51:36.661Z,97031.56
2023-05-06T01:54:23.458Z,97042.59
2023-05-06T01:57:10.859Z,97045.00
2023-05-06T01:59:57.608Z,97050.66
2023-05-06T02:02:44.547Z,97042.78
2023-05-06T02:05:31.528Z,97050.31
2023-05-06T02:08:18.307Z,97041.09
2023-05-06T02:11:05.042Z,97041.59
2023-05-06T02:13:51.788Z,97038.06
2023-05-06T02:16:38.587Z,97041.81
2023-05-06T02:19:25.404Z,97041.25
2023-05-06T02:22:12.222Z,97037.97
2023-05-06T02:24:58.984Z,97038.25
2023-05-06T02:27:45.807Z,97031.44
2023-05-06T02:30:32.633Z,97031.72
2023-05-06T02:33:19.423Z,97027.34
2023-05-06T02:36:06.200Z,97030.56
2023-05-06T02:38:52.925Z,97030.00
2023-05-06T02:41:39.659Z,97030.75
2023-05-06T02:44:26.533Z,97028.28
2023-05-06T02:47:13.337Z,97022.28
2023-05-06T02:50:00.196Z,97038.72
2023-05-06T02:52:46.917Z,97020.34
2023-05-06T02:55:33.652Z,97019.50
2023-05-06T02:58:20.468Z,97010.25
2023-05-06T03:01:07.267Z,97007.00
2023-05-06T03:03:54.074Z,97007.50
2023-05-06T03:06:40.882Z,97007.72
2023-05-06T03:09:27.641Z,97007.19
2023-05-06T03:12:14.444Z,97011.97
2023-05-06T03:15:01.224Z,97011.44
2023-05-06T03:17:48.073Z,97011.66
2023-05-06T03:20:34.862Z,97014.63
2023-05-06T03:23:21.615Z,97014.03
2023-05-06T03:26:10.401Z,97015.91
2023-05-06T03:28:57.288Z,97011.81
2023-05-06T03:31:44.072Z,97019.34
2023-05-06T03:34:30.925Z,97006.59
2023-05-06T03:37:18.191Z,97014.94
2023-05-06T03:40:05.182Z,97012.72
2023-05-06T03:42:51.934Z,97014.84
2023-05-06T03:45:38.667Z,97019.66
2023-05-06T03:48:25.819Z,97025.31
2023-05-06T03:51:12.617Z,97024.72
2023-05-06T03:53:59.504Z,97026.88
2023-05-06T03:56:46.289Z,97031.91
2023-05-06T03:59:33.010Z,97024.88
2023-05-06T04:02:19.870Z,97027.81
2023-05-06T04:05:07.696Z,97025.59
2023-05-06T04:07:54.688Z,97030.44
2023-05-06T04:10:41.774Z,97029.03
2023-05-06T04:13:28.798Z,97026.81
2023-05-06T04:16:15.696Z,97034.91
2023-05-06T04:19:05.692Z,97034.56
2023-05-06T04:21:53.170Z,97038.56
2023-05-06T04:24:41.788Z,97030.47
2023-05-06T04:27:29.849Z,97035.31
2023-05-06T04:30:16.669Z,97042.59
2023-05-06T04:33:04.130Z,97055.72
2023-05-06T04:35:54.270Z,97062.41
2023-05-06T04:38:41.835Z,97062.66
2023-05-06T04:41:31.185Z,97065.81
2023-05-06T04:44:19.507Z,97067.44
2023-05-06T04:47:06.728Z,97074.94
2023-05-06T04:49:53.763Z,97071.69
2023-05-06T04:52:40.833Z,97071.88
2023-05-06T04:55:27.663Z,97069.44
2023-05-06T04:58:14.637Z,97076.09
2023-05-06T05:01:03.625Z,97074.47
2023-05-06T05:03:50.604Z,97082.81
2023-05-06T05:06:37.424Z,97078.47
2023-05-06T05:09:24.216Z,97076.50
2023-05-06T05:12:11.155Z,97079.44
2023-05-06T05:14:57.934Z,97083.16
2023-05-06T05:17:44.732Z,97083.41
2023-05-06T05:20:31.560Z,97069.34
2023-05-06T05:23:18.315Z,97081.19
2023-05-06T05:26:05.098Z,97077.09
2023-05-06T05:28:51.971Z,97081.66
2023-05-06T05:31:38.785Z,97088.13
2023-05-06T05:34:25.680Z,97090.22
2023-05-06T05:37:12.435Z,97090.22
2023-05-06T05:39:59.249Z,97086.72
2023-05-06T05:42:46.057Z,97082.38
2023-05-06T05:45:32.831Z,97080.97
2023-05-06T05:48:19.557Z,97074.78
2023-05-06T05:51:06.299Z,97080.16
2023-05-06T05:53:53.375Z,97087.41
2023-05-06T05:56:40.138Z,97083.91
2023-05-06T05:59:28.298Z,97093.06
2023-05-06T06:02:15.160Z,97080.63
2023-05-06T06:05:01.944Z,97076.91
2023-05-06T06:07:48.820Z,97084.97
2023-05-06T06:10:35.772Z,97083.31
2023-05-06T06:13:23.263Z,97090.59
2023-05-06T06:16:10.519Z,97088.97
2023-05-06T06:18:57.323Z,97096.78
2023-05-06T06:21:44.075Z,97097.03
2023-05-06T06:24:34.680Z,97102.16
2023-05-06T06:27:21.528Z,97095.97
2023-05-06T06:30:08.543Z,97102.16
2023-05-06T06:32:56.566Z,97100.53
2023-05-06T06:35:43.499Z,97109.44
2023-05-06T06:38:30.284Z,97108.63
2023-05-06T06:41:17.036Z,97112.13
2023-05-06T06:44:03.827Z,97105.13
2023-05-06T06:46:50.721Z,97110.50
2023-05-06T06:49:38.548Z,97117.75
2023-05-06T06:52:25.417Z,97107.22
2023-05-06T06:55:12.399Z,97107.22
2023-05-06T06:57:59.433Z,97117.16
2023-05-06T07:00:46.284Z,97121.75
2023-05-06T07:03:33.161Z,97127.94
2023-05-06T07:06:20.130Z,97127.13
2023-05-06T07:09:06.857Z,97129.81
2023-05-06T07:11:53.680Z,97140.34
2023-05-06T07:14:41.409Z,97128.75
2023-05-06T07:17:28.351Z,97137.88
2023-05-06T07:20:16.233Z,97136.81
2023-05-06T07:23:03.575Z,97134.94
2023-05-06T07:25:50.400Z,97147.59
2023-05-06T07:28:37.131Z,97145.97
2023-05-06T07:31:23.942Z,97140.59
2023-05-06T07:34:11.148Z,97142.22
2023-05-06T07:36:57.928Z,97143.03
2023-05-06T07:39:44.750Z,97147.59
2023-05-06T07:42:31.482Z,97153.78
2023-05-06T07:45:19.656Z,97150.06
2023-05-06T07:48:06.580Z,97152.50
2023-05-06T07:50:53.356Z,97158.50
2023-05-06T07:53:40.289Z,97151.22
2023-05-06T07:56:27.057Z,97158.03
2023-05-06T07:59:14.291Z,97160.22
2023-05-06T08:02:01.528Z,97147.34
2023-05-06T08:04:50.138Z,97150.66
2023-05-06T08:07:39.229Z,97152.03
2023-05-06T08:10:26.017Z,97159.06
2023-05-06T08:13:12.822Z,97152.16
2023-05-06T08:16:00.675Z,97160.59
2023-05-06T08:18:47.461Z,97152.84
2023-05-06T08:21:34.200Z,97152.13
2023-05-06T08:24:21.084Z,97162.00
2023-05-06T08:27:07.830Z,97159.13
2023-05-06T08:29:54.554Z,97168.16
2023-05-06T08:32:41.378Z,97173.16
2023-05-06T08:35:28.100Z,97174.19
2023-05-06T08:38:14.844Z,97177.00
2023-05-06T08:41:03.462Z,97176.84
2023-05-06T08:43:50.759Z,97175.34
2023-05-06T08:46:37.514Z,97185.59
2023-05-06T08:49:24.295Z,97177.63
2023-05-06T08:52:11.055Z,97182.28
2023-05-06T08:55:01.559Z,97173.47
2023-05-06T08:57:48.590Z,97171.13
2023-05-06T09:00:35.581Z,97157.97
2023-05-06T09:03:22.386Z,97159.97
2023-05-06T09:06:09.223Z,97166.25
2023-05-06T09:08:56.051Z,97170.09
2023-05-06T09:11:42.826Z,97171.84
2023-05-06T09:14:29.767Z,97170.31
2023-05-06T09:17:29.144Z,97166.88
2023-05-06T09:20:15.963Z,97161.25
2023-05-06T09:23:02.806Z,97170.69
2023-05-06T09:25:51.242Z,97170.22
2023-05-06T09:28:38.010Z,97169.72
2023-05-06T09:31:26.194Z,97163.03
2023-05-06T09:34:13.170Z,97161.00
2023-05-06T09:36:59.955Z,97152.75
2023-05-06T09:39:46.941Z,97155.00
2023-05-06T09:42:33.695Z,97168.28
2023-05-06T09:45:20.919Z,97157.34
2023-05-06T09:48:08.353Z,97156.84
2023-05-06T09:50:55.117Z,97154.09
2023-05-06T09:53:41.857Z,97152.34
2023-05-06T09:56:28.514Z,97145.16
2023-05-06T09:59:20.519Z,97143.63
2023-05-06T10:02:07.298Z,97130.59
2023-05-06T10:04:54.711Z,97149.09
2023-05-06T10:07:44.372Z,97141.81
2023-05-06T10:10:31.260Z,97141.81
2023-05-06T10:13:20.347Z,97137.19
2023-05-06T10:16:10.151Z,97142.03
2023-05-06T10:18:56.833Z,97139.59
2023-05-06T10:21:43.829Z,97140.13
2023-05-06T10:24:36.341Z,97132.00
2023-05-06T10:27:23.711Z,97125.78
2023-05-06T10:30:13.879Z,97114.66
2023-05-06T10:33:03.743Z,97128.84
2023-05-06T10:36:15.617Z,97131.03
2023-05-06T10:39:03.814Z,97130.25
2023-05-06T10:41:50.622Z,97124.66
2023-05-06T10:45:04.004Z,97127.69
2023-05-06T10:47:56.839Z,97121.53
2023-05-06T10:50:45.646Z,97109.63
2023-05-06T10:53:52.079Z,97114.00
2023-05-06T10:56:39.385Z,97113.47
2023-05-06T10:59:26.585Z,97097.78
2023-05-06T11:02:13.427Z,97105.69
2023-05-06T11:05:00.709Z,97103.84
2023-05-06T11:07:49.726Z,97096.50
2023-05-06T11:10:36.864Z,97100.06
2023-05-06T11:13:27.816Z,97107.94
2023-05-06T11:16:19.097Z,97100.94
2023-05-06T11:19:06.030Z,97106.66
2023-05-06T11:21:53.360Z,97102.56
2023-05-06T11:24:40.963Z,97105.56
2023-05-06T11:27:27.633Z,97106.94
2023-05-06T11:30:24.345Z,97118.34
2023-05-06T11:33:33.690Z,97109.94
2023-05-06T11:36:20.739Z,97093.91
2023-05-06T11:39:10.513Z,97117.53
2023-05-06T11:42:06.504Z,97113.75
2023-05-06T11:44:53.942Z,97106.41
2023-05-06T11:47:43.130Z,97112.66
2023-05-06T11:50:29.856Z,97112.94
2023-05-06T11:53:18.815Z,97115.66
2023-05-06T11:56:06.151Z,97117.03
2023-05-06T11:58:56.514Z,97121.63
2023-05-06T12:01:43.688Z,97119.72
2023-05-06T12:04:40.433Z,97123.25
2023-05-06T12:07:27.202Z,97123.00
2023-05-06T12:10:14.179Z,97118.09
2023-05-06T12:13:04.198Z,97120.56
2023-05-06T12:15:54.178Z,97119.47
2023-05-06T12:18:40.885Z,97115.66
2023-05-06T12:21:32.867Z,97121.38
2023-05-06T12:24:41.886Z,97114.84
2023-05-06T12:27:32.827Z,97117.31
2023-05-06T12:30:28.828Z,97105.13
2023-05-06T12:33:18.480Z,97105.66
2023-05-06T12:36:08.367Z,97102.41
2023-05-06T12:38:56.012Z,97093.16
2023-05-06T12:41:46.218Z,97096.44
2023-05-06T12:44:35.156Z,97097.81
2023-05-06T12:47:22.934Z,97095.63
2023-05-06T12:50:09.976Z,97090.47
2023-05-06T12:52:56.932Z,97094.56
2023-05-06T12:55:45.203Z,97089.66
2023-05-06T12:58:37.359Z,97091.81
2023-05-06T13:01:24.183Z,97091.28
2023-05-06T13:04:10.915Z,97088.06
2023-05-06T13:07:00.181Z,97084.81
2023-05-06T13:09:46.925Z,97083.44
2023-05-06T13:12:33.688Z,97080.97
2023-05-06T13:15:20.572Z,97072.84
2023-05-06T13:18:07.422Z,97067.97
2023-05-06T13:20:54.118Z,97069.06
2023-05-06T13:23:46.779Z,97064.44
2023-05-06T13:26:33.983Z,97072.03
2023-05-06T13:29:20.821Z,97064.16
2023-05-06T13:32:08.986Z,97056.28
2023-05-06T13:35:03.181Z,97058.72
2023-05-06T13:37:56.092Z,97049.19
2023-05-06T13:41:37.248Z,97058.97
2023-05-06T13:44:24.748Z,97059.25
2023-05-06T13:47:11.486Z,97053.81
2023-05-06T13:49:58.218Z,97053.31
2023-05-06T13:52:45.296Z,97045.41
2023-05-06T13:55:32.032Z,97057.91
2023-05-06T13:58:18.910Z,97042.16
2023-05-06T14:01:06.110Z,97042.41
2023-05-06T14:03:53.204Z,97049.72
2023-05-06T14:06:40.614Z,97044.00
2023-05-06T14:09:27.299Z,97044.53
2023-05-06T14:12:14.029Z,97045.59
2023-05-06T14:15:00.856Z,97043.97
2023-05-06T14:17:47.713Z,97035.53
2023-05-06T14:20:34.573Z,97035.81
2023-05-06T14:23:24.240Z,97034.16
2023-05-06T14:26:10.969Z,97025.19
2023-05-06T14:28:58.851Z,97029.53
2023-05-06T14:31:45.680Z,97025.72
2023-05-06T14:34:37.163Z,97024.91
2023-05-06T14:37:23.895Z,97027.63
2023-05-06T14:40:10.675Z,97021.38
2023-05-06T14:42:57.427Z,97015.94
2023-05-06T14:45:44.221Z,97026.53
2023-05-06T14:48:31.979Z,97024.63
2023-05-06T14:51:19.048Z,97024.63
2023-05-06T14:54:05.779Z,97028.44
2023-05-06T14:56:54.406Z,97027.91
2023-05-06T14:59:41.305Z,97030.06
2023-05-06T15:02:28.083Z,97040.41
2023-05-06T15:05:15.122Z,97036.34
2023-05-06T15:08:03.446Z,97038.53
2023-05-06T15:10:50.475Z,97034.72
2023-05-06T15:13:38.172Z,97032.81
2023-05-06T15:16:24.907Z,97032.00
2023-05-06T15:19:11.874Z,97039.63
2023-05-06T15:21:58.718Z,97031.75
2023-05-06T15:24:45.571Z,97029.31
2023-05-06T15:27:32.269Z,97027.41
2023-05-06T15:30:19.037Z,97034.19
2023-05-06T15:33:05.997Z,97034.72
2023-05-06T15:35:52.741Z,97032.56
2023-05-06T15:38:51.654Z,97034.19
2023-05-06T15:41:40.033Z,97030.66
2023-05-06T15:44:27.202Z,97027.94
2023-05-06T15:47:14.028Z,97021.97
2023-05-06T15:50:02.142Z,97028.78
2023-05-06T15:52:50.266Z,97033.69
2023-05-06T15:55:45.137Z,97023.63
2023-05-06T15:58:33.726Z,97020.38
2023-05-06T16:01:23.798Z,97017.34
2023-05-06T16:04:22.529Z,97019.78
2023-05-06T16:07:09.367Z,97016.81
2023-05-06T16:09:56.126Z,97016.81
2023-05-06T16:12:43.279Z,97022.25
2023-05-06T16:15:30.212Z,97010.56
2023-05-06T16:18:17.742Z,97011.09
2023-05-06T16:21:04.548Z,97020.38
2023-05-06T16:23:51.449Z,97014.44
2023-05-06T16:26:38.244Z,97010.94
2023-05-06T16:29:24.996Z,97015.03
2023-05-06T16:32:11.803Z,97017.47
2023-05-06T16:35:00.737Z,97022.84
2023-05-06T16:37:47.498Z,97030.72
2023-05-06T16:40:40.338Z,97025.88
2023-05-06T16:43:27.133Z,97022.59
2023-05-06T16:46:13.879Z,97020.44
2023-05-06T16:49:03.483Z,97019.34
2023-05-06T16:51:50.212Z,97014.19
2023-05-06T16:54:36.931Z,97023.69
2023-05-06T16:57:23.672Z,97017.44
2023-05-06T17:00:11.874Z,97020.41
2023-05-06T17:02:59.261Z,97015.78
2023-05-06T17:05:46.805Z,97014.97
2023-05-06T17:08:36.339Z,97018.22
2023-05-06T17:11:25.262Z,97019.06
2023-05-06T17:14:12.211Z,97022.03
2023-05-06T17:17:02.163Z,97021.50
2023-05-06T17:19:48.914Z,97018.78
2023-05-06T17:22:35.849Z,97017.13
2023-05-06T17:25:23.747Z,97013.63
2023-05-06T17:28:11.085Z,96999.50
2023-05-06T17:31:01.783Z,97011.44
2023-05-06T17:33:49.169Z,97009.81
2023-05-06T17:36:35.900Z,97012.81
2023-05-06T17:39:22.624Z,97009.28
2023-05-06T17:42:09.556Z,97012.28
2023-05-06T17:44:56.238Z,97018.00
2023-05-06T17:47:43.096Z,97012.56
2023-05-06T17:50:29.882Z,97013.38
2023-05-06T17:53:16.604Z,97022.06
2023-05-06T17:56:03.998Z,97018.78
2023-05-06T17:58:50.716Z,97022.03
2023-05-06T18:01:37.511Z,97019.91
2023-05-06T18:04:24.382Z,97016.91
2023-05-06T18:07:11.311Z,97021.25
2023-05-06T18:09:58.060Z,97020.13
2023-05-06T18:12:48.036Z,97011.44
2023-05-06T18:15:34.816Z,97011.69
2023-05-06T18:18:21.621Z,97017.69
2023-05-06T18:21:08.407Z,97020.94
2023-05-06T18:24:02.010Z,97017.66
2023-05-06T18:26:59.085Z,97024.75
2023-05-06T18:29:45.841Z,97024.75
2023-05-06T18:32:34.152Z,97022.84
2023-05-06T18:35:20.950Z,97026.38
2023-05-06T18:38:07.807Z,97030.69
2023-05-06T18:40:54.573Z,97030.19
2023-05-06T18:43:41.295Z,97034.78
2023-05-06T18:46:28.168Z,97026.91
2023-05-06T18:49:14.958Z,97038.06
2023-05-06T18:52:02.539Z,97038.31
2023-05-06T18:54:49.304Z,97043.75
2023-05-06T18:57:36.137Z,97036.69
2023-05-06T19:00:24.186Z,97046.75
2023-05-06T19:03:11.151Z,97041.59
2023-05-06T19:05:59.392Z,97054.34
2023-05-06T19:08:46.222Z,97050.03
2023-05-06T19:11:34.161Z,97050.28
2023-05-06T19:14:21.508Z,97051.66
2023-05-06T19:17:09.378Z,97054.63
2023-05-06T19:19:56.234Z,97062.25
2023-05-06T19:22:42.934Z,97063.34
2023-05-06T19:25:29.620Z,97058.72
2023-05-06T19:28:16.333Z,97062.53
2023-05-06T19:31:07.295Z,97066.59
2023-05-06T19:33:54.350Z,97062.81
2023-05-06T19:36:41.165Z,97058.47
2023-05-06T19:39:27.871Z,97065.25
2023-05-06T19:42:15.169Z,97063.06
2023-05-06T19:45:08.626Z,97067.94
2023-05-06T19:47:55.602Z,97066.88
2023-05-06T19:50:42.430Z,97077.44
2023-05-06T19:53:29.173Z,97064.41
2023-05-06T19:56:17.355Z,97078.53
2023-05-06T19:59:04.118Z,97075.53
2023-05-06T20:01:50.954Z,97071.44
2023-05-06T20:04:37.779Z,97073.38
2023-05-06T20:07:24.638Z,97071.44
2023-05-06T20:10:13.676Z,97069.53
2023-05-06T20:13:00.610Z,97072.78
2023-05-06T20:15:47.608Z,97067.09
2023-05-06T20:18:34.448Z,97068.47
2023-05-06T20:21:21.260Z,97066.28
2023-05-06T20:24:08.172Z,97070.34
2023-05-06T20:26:55.940Z,97060.81
2023-05-06T20:29:42.809Z,97069.81
2023-05-06T20:32:31.086Z,97073.06
2023-05-06T20:35:17.925Z,97075.47
2023-05-06T20:38:04.663Z,97068.97
2023-05-06T20:40:51.396Z,97068.69
2023-05-06T20:43:38.183Z,97067.03
2023-05-06T20:46:24.962Z,97061.03
2023-05-06T20:49:11.822Z,97065.63
2023-05-06T20:51:58.652Z,97068.34
2023-05-06T20:54:45.475Z,97077.00
2023-05-06T20:57:32.237Z,97072.91
2023-05-06T21:00:19.281Z,97069.69
2023-05-06T21:03:06.166Z,97065.59
2023-05-06T21:05:53.069Z,97060.69
2023-05-06T21:08:39.755Z,97066.13
2023-05-06T21:11:28.793Z,97066.63
2023-05-06T21:14:15.705Z,97065.84
2023-05-06T21:17:02.465Z,97064.72
2023-05-06T21:19:52.359Z,97070.41
2023-05-06T21:22:39.059Z,97068.78
2023-05-06T21:25:25.921Z,97069.06
2023-05-06T21:28:13.653Z,97070.63
2023-05-06T21:31:00.524Z,97071.19
2023-05-06T21:33:47.543Z,97064.66
2023-05-06T21:36:35.356Z,97076.56
2023-05-06T21:39:22.118Z,97068.72
2023-05-06T21:42:08.829Z,97070.63
2023-05-06T21:44:57.345Z,97063.00
2023-05-06T21:47:44.514Z,97071.13
2023-05-06T21:50:31.297Z,97067.34
2023-05-06T21:53:18.088Z,97069.19
2023-05-06T21:56:04.963Z,97069.19
2023-05-06T21:58:52.480Z,97072.97
2023-05-06T22:01:39.285Z,97080.81
2023-05-06T22:04:26.220Z,97083.78
2023-05-06T22:07:12.979Z,97081.84
2023-05-06T22:09:59.696Z,97085.66
2023-05-06T22:12:46.829Z,97074.81
2023-05-06T22:15:33.593Z,97079.97
2023-05-06T22:18:20.335Z,97077.53
2023-05-06T22:21:07.267Z,97070.97
2023-05-06T22:23:53.950Z,97068.44
2023-05-06T22:26:40.779Z,97081.50
2023-05-06T22:29:27.533Z,97084.47
2023-05-06T22:32:14.258Z,97082.03
2023-05-06T22:35:00.996Z,97079.31
2023-05-06T22:37:48.152Z,97086.88
2023-05-06T22:40:34.897Z,97085.53
2023-05-06T22:43:21.607Z,97086.56
2023-05-06T22:46:08.440Z,97081.94
2023-05-06T22:48:55.334Z,97081.63
2023-05-06T22:51:42.051Z,97077.28
2023-05-06T22:54:28.783Z,97074.56
2023-05-06T22:57:15.550Z,97085.41
2023-05-06T23:00:02.327Z,97093.78
2023-05-06T23:02:49.118Z,97085.38
2023-05-06T23:05:35.893Z,97093.19
2023-05-06T23:08:22.632Z,97092.59
2023-05-06T23:11:09.357Z,97092.56
2023-05-06T23:13:56.145Z,97088.72
2023-05-06T23:16:43.005Z,97084.66
2023-05-06T23:19:29.796Z,97089.78
2023-05-06T23:22:16.507Z,97084.06
2023-05-06T23:25:03.248Z,97087.56
2023-05-06T23:27:49.987Z,97081.34
2023-05-06T23:30:36.813Z,97081.88
2023-05-06T23:33:23.632Z,97081.06
2023-05-06T23:36:10.423Z,97084.56
2023-05-06T23:38:57.149Z,97082.13
2023-05-06T23:41:43.904Z,97077.78
2023-05-06T23:44:30.770Z,97085.34
2023-05-06T23:47:17.619Z,97083.38
2023-05-06T23:50:04.505Z,97081.69
2023-05-06T23:52:51.316Z,97076.22
2023-05-06T23:55:38.139Z,97084.34
2023-05-06T23:58:24.887Z,97084.03
